createdAt,value
2018-08-23T00:01:39.651Z,2.50
2018-08-23T00:04:09.019Z,3.60
2018-08-23T00:06:40.314Z,2.57
2018-08-23T00:09:08.530Z,2.33
2018-08-23T00:11:40.952Z,3.03
2018-08-23T00:14:09.131Z,2.70
2018-08-23T00:16:42.303Z,2.77
2018-08-23T00:19:10.409Z,2.60
2018-08-23T00:35:34.112Z,3.27
2018-08-23T00:41:44.395Z,3.00
2018-08-23T00:44:12.536Z,4.12
2018-08-23T00:46:40.640Z,2.67
2018-08-23T00:49:08.767Z,2.95
2018-08-23T00:55:17.028Z,2.80
2018-08-23T00:57:47.890Z,3.00
2018-08-23T01:00:21.351Z,2.60
2018-08-23T01:02:50.179Z,2.70
2018-08-23T01:05:45.581Z,2.73
2018-08-23T01:18:20.095Z,2.70
2018-08-23T01:20:49.694Z,2.63
2018-08-23T01:23:26.688Z,2.50
2018-08-23T01:25:55.179Z,2.83
2018-08-23T01:28:24.886Z,2.60
2018-08-23T01:37:37.658Z,2.83
2018-08-23T02:00:18.174Z,3.20
2018-08-23T02:06:35.373Z,3.33
2018-08-23T02:13:37.964Z,2.60
2018-08-23T02:16:05.114Z,2.73
2018-08-23T02:22:13.760Z,3.10
2018-08-23T02:28:10.699Z,3.10
2018-08-23T02:30:57.697Z,3.50
2018-08-23T02:33:26.497Z,2.90
2018-08-23T02:39:09.139Z,3.83
2018-08-23T02:49:00.193Z,3.00
2018-08-23T02:55:08.399Z,2.87
2018-08-23T03:01:18.434Z,3.17
2018-08-23T03:04:08.466Z,2.90
2018-08-23T03:07:01.592Z,2.87
2018-08-23T03:09:36.608Z,2.77
2018-08-23T03:22:18.488Z,4.00
2018-08-23T03:24:46.632Z,3.63
2018-08-23T03:27:14.764Z,3.80
2018-08-23T03:29:42.970Z,3.20
2018-08-23T03:33:11.389Z,4.40
2018-08-23T03:44:54.818Z,3.43
2018-08-23T03:47:23.324Z,3.87
2018-08-23T03:49:51.610Z,3.37
2018-08-23T03:52:39.099Z,3.40
2018-08-23T03:55:11.134Z,3.30
2018-08-23T03:58:10.488Z,3.20
2018-08-23T04:01:14.439Z,3.07
2018-08-23T04:04:00.148Z,3.10
2018-08-23T04:06:31.839Z,3.20
2018-08-23T04:09:00.017Z,4.40
2018-08-23T04:11:28.206Z,3.40
2018-08-23T04:20:30.748Z,5.05
2018-08-23T04:23:08.051Z,3.90
2018-08-23T04:38:44.311Z,2.60
2018-08-23T04:41:19.049Z,2.80
2018-08-23T09:23:57.850Z,7.17
2018-08-23T09:27:15.425Z,3.58
2018-08-23T09:33:07.650Z,2.60
2018-08-23T09:42:48.441Z,3.00
2018-08-23T09:45:54.558Z,2.60
2018-08-23T09:48:22.957Z,2.72
2018-08-23T09:50:51.443Z,4.20
2018-08-23T09:53:26.046Z,5.42
2018-08-23T09:55:55.499Z,2.75
2018-08-23T09:58:41.169Z,3.50
2018-08-23T10:01:26.777Z,6.55
2018-08-23T10:04:12.776Z,4.05
2018-08-23T10:06:58.662Z,4.75
2018-08-23T10:09:27.201Z,3.72
2018-08-23T10:12:12.851Z,2.70
2018-08-23T10:14:59.737Z,2.80
2018-08-23T10:17:46.086Z,3.22
2018-08-23T10:20:31.920Z,2.75
2018-08-23T10:23:21.150Z,2.60
2018-08-23T10:25:50.791Z,2.72
2018-08-23T10:28:23.526Z,2.87
2018-08-23T10:31:00.939Z,3.02
2018-08-23T10:33:18.681Z,2.95
2018-08-23T10:35:53.786Z,2.70
2018-08-23T10:38:24.308Z,2.98
2018-08-23T10:40:54.249Z,3.55
2018-08-23T10:43:39.822Z,3.10
2018-08-23T10:46:07.978Z,2.85
2018-08-23T10:51:04.694Z,3.30
2018-08-23T10:53:33.702Z,3.35
2018-08-23T10:56:01.909Z,3.00
2018-08-23T10:58:30.339Z,3.20
2018-08-23T11:00:58.518Z,3.08
2018-08-23T11:03:26.806Z,2.47
2018-08-23T11:05:56.150Z,3.10
2018-08-23T11:08:26.053Z,3.40
2018-08-23T11:11:11.970Z,3.30
2018-08-23T11:13:49.637Z,3.80
2018-08-23T11:16:35.265Z,3.77
2018-08-23T11:19:21.621Z,4.60
2018-08-23T11:21:51.910Z,4.03
2018-08-23T11:27:42.734Z,3.70
2018-08-23T11:30:23.991Z,3.77
2018-08-23T11:32:56.067Z,3.80
2018-08-23T11:35:24.163Z,4.08
2018-08-23T11:37:52.279Z,3.40
2018-08-23T11:47:03.401Z,4.53
2018-08-23T11:49:31.550Z,3.62
2018-08-23T11:52:18.771Z,3.70
2018-08-23T11:54:46.914Z,7.60
2018-08-23T11:57:15.116Z,4.50
2018-08-23T11:59:43.328Z,5.00
2018-08-23T12:02:11.507Z,4.67
2018-08-23T12:04:46.193Z,4.65
2018-08-23T12:07:16.315Z,4.10
2018-08-23T12:09:44.515Z,4.03
2018-08-23T12:12:20.184Z,4.58
2018-08-23T12:18:10.071Z,3.83
2018-08-23T12:24:14.648Z,4.47
2018-08-23T12:26:42.853Z,3.90
2018-08-23T12:29:11.282Z,4.28
2018-08-23T12:35:01.149Z,3.62
2018-08-23T12:37:46.843Z,4.00
2018-08-23T12:40:38.619Z,7.65
2018-08-23T12:43:11.780Z,3.98
2018-08-23T12:45:43.638Z,3.55
2018-08-23T12:48:13.207Z,5.40
2018-08-23T12:50:43.083Z,4.03
2018-08-23T12:53:11.594Z,4.85
2018-08-23T12:55:39.776Z,3.30
2018-08-23T12:58:14.774Z,4.12
2018-08-23T13:00:43.172Z,4.65
2018-08-23T13:03:11.416Z,5.97
2018-08-23T13:05:40.075Z,3.47
2018-08-23T13:08:08.345Z,6.70
2018-08-23T13:10:37.178Z,4.67
2018-08-23T13:13:05.730Z,4.40
2018-08-23T13:15:33.946Z,4.28
2018-08-23T13:18:05.186Z,4.45
2018-08-23T13:20:35.154Z,3.80
2018-08-23T13:23:03.348Z,4.17
2018-08-23T13:25:34.299Z,4.22
2018-08-23T13:28:02.467Z,4.00
2018-08-23T13:30:32.434Z,4.25
2018-08-23T13:33:03.147Z,4.03
2018-08-23T13:35:31.402Z,4.25
2018-08-23T13:38:00.181Z,4.40
2018-08-23T13:40:49.489Z,4.65
2018-08-23T13:43:17.886Z,4.58
2018-08-23T13:45:46.927Z,4.85
2018-08-23T13:48:15.590Z,4.40
2018-08-23T13:50:43.755Z,4.05
2018-08-23T13:53:12.178Z,3.92
2018-08-23T13:55:41.107Z,4.15
2018-08-23T13:58:16.476Z,4.87
2018-08-23T14:00:52.440Z,4.13
2018-08-23T14:03:20.608Z,4.12
2018-08-23T14:05:53.144Z,4.78
2018-08-23T14:08:21.570Z,4.42
2018-08-23T14:10:49.675Z,4.08
2018-08-23T14:13:17.823Z,4.50
2018-08-23T14:16:07.987Z,3.87
2018-08-23T14:18:37.975Z,4.15
2018-08-23T14:21:10.727Z,4.03
2018-08-23T14:23:38.883Z,4.80
2018-08-23T14:26:18.713Z,4.05
2018-08-23T14:28:47.474Z,4.58
2018-08-23T14:31:15.870Z,4.35
2018-08-23T14:33:44.439Z,4.08
2018-08-23T14:36:12.883Z,4.03
2018-08-23T14:38:41.402Z,4.67
2018-08-23T14:41:09.571Z,4.92
2018-08-23T14:43:39.784Z,3.90
2018-08-23T14:46:25.782Z,4.15
2018-08-23T14:48:55.609Z,4.17
2018-08-23T14:51:23.754Z,4.15
2018-08-23T14:53:52.198Z,4.75
2018-08-23T14:56:38.988Z,4.83
2018-08-23T14:59:07.253Z,5.80
2018-08-23T15:01:35.742Z,5.20
2018-08-23T15:04:04.501Z,4.67
2018-08-23T15:06:35.440Z,4.53
2018-08-23T15:09:11.204Z,4.75
2018-08-23T15:11:39.612Z,4.17
2018-08-23T15:14:07.888Z,4.83
2018-08-23T15:16:37.552Z,4.67
2018-08-23T15:19:06.177Z,4.45
2018-08-23T15:21:34.351Z,4.55
2018-08-23T15:24:02.525Z,4.62
2018-08-23T15:26:32.724Z,4.70
2018-08-23T15:29:04.712Z,4.15
2018-08-23T15:31:33.153Z,5.13
2018-08-23T15:34:01.355Z,4.55
2018-08-23T15:36:29.520Z,4.95
2018-08-23T15:39:00.877Z,4.67
2018-08-23T15:41:29.362Z,4.67
2018-08-23T15:43:57.824Z,5.40
2018-08-23T15:46:43.425Z,4.92
2018-08-23T15:49:13.233Z,7.08
2018-08-23T15:51:42.278Z,6.12
2018-08-23T15:54:11.376Z,5.60
2018-08-23T15:56:40.301Z,6.17
2018-08-23T15:59:08.552Z,6.97
2018-08-23T16:01:40.222Z,6.85
2018-08-23T16:04:11.750Z,6.20
2018-08-23T16:06:40.063Z,6.53
2018-08-23T16:09:09.941Z,5.92
2018-08-23T16:11:38.373Z,6.78
2018-08-23T16:14:42.734Z,5.70
2018-08-23T16:17:28.681Z,6.10
2018-08-23T16:20:15.483Z,5.25
2018-08-23T16:22:43.948Z,4.95
2018-08-23T16:25:12.358Z,5.58
2018-08-23T16:27:42.674Z,4.62
2018-08-23T16:30:13.632Z,5.22
2018-08-23T16:32:42.453Z,5.20
2018-08-23T16:35:10.678Z,5.30
2018-08-23T16:37:39.379Z,5.15
2018-08-23T16:40:07.867Z,4.37
2018-08-23T16:42:36.494Z,4.67
2018-08-23T16:45:05.029Z,5.30
2018-08-23T16:47:33.362Z,5.17
2018-08-23T16:50:02.867Z,5.05
2018-08-23T16:52:35.647Z,7.37
2018-08-23T16:55:11.518Z,5.20
2018-08-23T16:57:40.856Z,6.62
2018-08-23T17:00:09.143Z,6.12
2018-08-23T17:02:37.878Z,8.28
2018-08-23T17:05:06.224Z,5.92
2018-08-23T17:07:34.494Z,7.50
2018-08-23T17:10:07.345Z,5.72
2018-08-23T17:12:36.878Z,7.65
2018-08-23T17:15:06.000Z,5.53
2018-08-23T17:17:35.909Z,5.87
2018-08-23T17:20:07.593Z,5.60
2018-08-23T17:22:43.537Z,5.62
2018-08-23T17:25:15.322Z,5.80
2018-08-23T17:27:43.552Z,4.87
2018-08-23T17:30:14.843Z,6.15
2018-08-23T17:32:45.731Z,4.95
2018-08-23T17:35:15.052Z,4.75
2018-08-23T17:37:44.088Z,5.08
2018-08-23T17:40:12.695Z,4.80
2018-08-23T17:42:44.618Z,5.15
2018-08-23T17:45:14.409Z,4.58
2018-08-23T17:47:45.247Z,4.25
2018-08-23T17:50:14.815Z,5.10
2018-08-23T17:52:45.176Z,5.33
2018-08-23T17:55:15.848Z,5.03
2018-08-23T17:57:45.206Z,4.80
2018-08-23T18:00:12.695Z,6.22
2018-08-23T18:02:41.209Z,5.55
2018-08-23T18:05:10.996Z,5.00
2018-08-23T18:07:39.299Z,4.92
2018-08-23T18:10:07.595Z,5.30
2018-08-23T18:12:37.185Z,5.45
2018-08-23T18:15:08.683Z,5.40
2018-08-23T18:17:40.202Z,5.40
2018-08-23T18:20:08.848Z,5.90
2018-08-23T18:22:38.708Z,5.50
2018-08-23T18:25:07.044Z,6.12
2018-08-23T18:27:35.969Z,5.22
2018-08-23T18:30:05.896Z,5.10
2018-08-23T18:32:33.254Z,5.25
2018-08-23T18:35:01.654Z,5.67
2018-08-23T18:37:30.249Z,4.87
2018-08-23T18:39:58.822Z,5.62
2018-08-23T18:42:27.821Z,5.60
2018-08-23T18:51:37.117Z,5.40
2018-08-23T18:54:13.343Z,7.55
2018-08-23T18:56:46.796Z,6.30
2018-08-23T18:59:22.653Z,5.50
2018-08-23T19:01:52.562Z,5.55
2018-08-23T19:08:01.219Z,4.93
2018-08-23T19:10:31.846Z,5.10
2018-08-23T19:13:00.204Z,5.23
2018-08-23T19:15:47.679Z,5.87
2018-08-23T19:18:16.021Z,6.27
2018-08-23T19:20:44.303Z,7.10
2018-08-23T19:23:12.479Z,6.83
2018-08-23T19:29:24.526Z,6.97
2018-08-23T19:32:01.279Z,7.50
2018-08-23T19:34:41.481Z,7.40
2018-08-23T19:37:46.414Z,8.13
2018-08-23T19:41:08.182Z,6.53
2018-08-23T19:43:36.811Z,7.37
2018-08-23T19:46:32.439Z,7.67
2018-08-23T19:49:10.063Z,7.60
2018-08-23T19:58:37.178Z,8.60
2018-08-23T20:01:47.415Z,9.53
2018-08-23T20:05:19.930Z,8.37
2018-08-23T20:07:51.365Z,8.90
2018-08-23T20:10:21.236Z,10.83
2018-08-23T20:12:52.610Z,9.63
2018-08-23T20:15:27.123Z,8.33
2018-08-23T20:17:58.060Z,9.20
2018-08-23T20:20:29.297Z,9.43
2018-08-23T20:22:59.848Z,9.40
2018-08-23T20:26:15.711Z,9.97
2018-08-23T20:39:02.916Z,10.73
2018-08-23T20:41:36.777Z,10.10
2018-08-23T20:44:09.887Z,10.77
2018-08-23T20:46:47.137Z,10.40
2018-08-23T20:49:21.979Z,10.17
2018-08-23T20:52:25.439Z,9.70
2018-08-23T20:55:36.636Z,11.20
2018-08-23T20:58:10.752Z,11.43
2018-08-23T21:07:22.860Z,11.63
2018-08-23T21:09:51.212Z,11.47
2018-08-23T21:12:22.317Z,10.73
2018-08-23T21:15:01.853Z,10.23
2018-08-23T21:17:30.821Z,10.90
2018-08-23T21:20:02.297Z,11.63
2018-08-23T21:22:31.113Z,11.20
2018-08-23T21:25:03.355Z,11.80
2018-08-23T21:27:31.545Z,10.63
2018-08-23T21:29:59.902Z,9.87
2018-08-23T21:32:29.075Z,12.57
2018-08-23T21:35:00.865Z,11.30
2018-08-23T21:37:31.673Z,11.63
2018-08-23T21:40:04.785Z,11.07
2018-08-23T21:42:34.033Z,11.90
2018-08-23T21:45:03.095Z,10.47
2018-08-23T21:47:33.709Z,11.47
2018-08-23T21:53:23.827Z,10.93
2018-08-23T21:55:54.013Z,10.93
2018-08-23T21:58:33.781Z,9.87
2018-08-23T22:01:05.811Z,9.53
2018-08-23T22:03:38.880Z,11.20
2018-08-23T22:06:11.289Z,10.53
2018-08-23T22:12:06.299Z,11.13
2018-08-23T22:14:37.340Z,10.57
2018-08-23T22:17:05.598Z,10.03
2018-08-23T22:19:56.670Z,12.23
2018-08-23T22:22:28.280Z,10.07
2018-08-23T22:28:18.575Z,10.87
2018-08-23T22:37:53.292Z,10.63
2018-08-23T22:40:21.905Z,11.13
2018-08-23T22:42:51.196Z,11.80
2018-08-23T22:45:19.470Z,11.60
2018-08-23T22:47:47.781Z,10.20
2018-08-23T22:50:19.592Z,11.47
2018-08-23T22:52:50.214Z,11.70
2018-08-23T22:55:25.640Z,11.03
2018-08-23T22:57:57.898Z,11.23
2018-08-23T23:00:42.344Z,11.17
2018-08-23T23:03:30.444Z,12.70
2018-08-23T23:06:00.282Z,11.33
2018-08-23T23:08:51.745Z,11.50
2018-08-23T23:11:20.448Z,10.63
2018-08-23T23:13:48.776Z,10.70
2018-08-23T23:40:07.590Z,12.23
2018-08-23T23:42:36.027Z,12.60
2018-08-23T23:48:05.781Z,14.53
2018-08-23T23:50:35.617Z,15.90
2018-08-23T23:53:08.891Z,14.37
2018-08-23T23:55:39.518Z,14.43
2018-08-23T23:58:08.108Z,13.90
